Time;durP1;ratioP1;P1;durP2;ratioP2;P2;SDS_P1;SDS_P2;PMS_P1;PMS_P2;Temp;Humidity;BMP_temperature;BMP_pressure;BME280_temperature;BME280_humidity;BME280_pressure;Samples;Min_cycle;Max_cycle;Signal;HPM_P1;HPM_P2
2023/11/12 00:03:36;;;;;;;13.68;6.75;;;;;;;;;;10023700;28;20384;-70
2023/11/12 00:08:28;;;;;;;4.25;3.85;;;;;;;;;;10023584;28;20048;-69
2023/11/12 00:13:20;;;;;;;4.95;2.75;;;;;;;;;;10024279;28;20050;-70
2023/11/12 00:18:12;;;;;;;8.35;3.67;;;;;;;;;;10031451;28;20041;-70
2023/11/12 00:23:03;;;;;;;4.00;2.80;;;;;;;;;;10057327;28;20076;-69
2023/11/12 00:27:55;;;;;;;6.25;2.38;;;;;;;;;;10062590;28;20461;-70
2023/11/12 00:32:47;;;;;;;4.20;2.35;;;;;;;;;;10062795;28;20044;-70
2023/11/12 00:37:39;;;;;;;3.60;2.70;;;;;;;;;;10063540;28;20041;-70
2023/11/12 00:42:32;;;;;;;5.03;2.72;;;;;;;;;;10052063;28;20496;-70
2023/11/12 00:47:23;;;;;;;8.35;3.20;;;;;;;;;;10026857;28;20084;-70
2023/11/12 00:52:16;;;;;;;8.07;2.97;;;;;;;;;;10027547;28;20053;-70
2023/11/12 00:57:08;;;;;;;10.02;2.70;;;;;;;;;;10014618;28;20037;-70
2023/11/12 01:02:01;;;;;;;6.75;2.72;;;;;;;;;;10029817;28;20057;-70
2023/11/12 01:06:53;;;;;;;5.30;2.63;;;;;;;;;;10030230;28;20042;-70
2023/11/12 01:11:44;;;;;;;8.13;2.17;;;;;;;;;;10028868;28;20084;-69
2023/11/12 01:16:37;;;;;;;3.25;2.05;;;;;;;;;;10011849;28;20050;-70
2023/11/12 01:21:29;;;;;;;5.05;2.78;;;;;;;;;;10030816;28;20582;-70
2023/11/12 01:26:21;;;;;;;4.88;2.42;;;;;;;;;;10029615;28;20125;-70
2023/11/12 01:31:13;;;;;;;6.88;2.97;;;;;;;;;;10027725;28;20346;-70
2023/11/12 01:36:06;;;;;;;3.42;2.80;;;;;;;;;;10029970;28;20097;-70
2023/11/12 01:41:02;;;;;;;7.30;2.63;;;;;;;;;;9994276;28;20045;-70
2023/11/12 01:45:55;;;;;;;4.85;2.70;;;;;;;;;;10025117;28;20100;-70
2023/11/12 01:50:47;;;;;;;6.40;2.92;;;;;;;;;;10020424;28;20049;-70
2023/11/12 01:55:39;;;;;;;4.03;3.30;;;;;;;;;;10027536;28;20053;-70
2023/11/12 02:00:33;;;;;;;3.63;2.80;;;;;;;;;;9994642;28;20125;-70
2023/11/12 02:05:25;;;;;;;3.17;2.28;;;;;;;;;;9993916;28;20414;-70
2023/11/12 02:10:17;;;;;;;4.00;2.83;;;;;;;;;;10008868;28;20376;-70
2023/11/12 02:15:10;;;;;;;4.43;2.50;;;;;;;;;;10029560;28;20074;-70
2023/11/12 02:20:10;;;;;;;5.55;3.85;;;;;;;;;;10027627;28;20034;-70
2023/11/12 02:25:06;;;;;;;5.03;3.80;;;;;;;;;;10027447;28;20141;-70
2023/11/12 02:29:58;;;;;;;12.75;6.30;;;;;;;;;;10018744;28;20049;-70
2023/11/12 02:34:53;;;;;;;7.70;4.35;;;;;;;;;;10025261;28;20104;-70
2023/11/12 02:39:45;;;;;;;7.20;4.10;;;;;;;;;;10025091;28;20410;-70
2023/11/12 02:44:38;;;;;;;11.45;6.70;;;;;;;;;;10008377;28;20108;-70
2023/11/12 02:49:39;;;;;;;9.20;6.32;;;;;;;;;;10009397;28;20461;-70
2023/11/12 02:54:32;;;;;;;12.68;8.25;;;;;;;;;;9995331;28;20040;-70
2023/11/12 02:59:24;;;;;;;7.82;6.70;;;;;;;;;;10025348;28;20125;-70
2023/11/12 03:04:16;;;;;;;8.80;7.65;;;;;;;;;;10019334;28;20045;-70
2023/11/12 03:09:09;;;;;;;9.68;7.82;;;;;;;;;;10008640;28;20034;-70
2023/11/12 03:14:02;;;;;;;11.32;7.63;;;;;;;;;;10025126;28;20043;-70
2023/11/12 03:18:55;;;;;;;13.25;7.88;;;;;;;;;;10027114;28;20037;-70
2023/11/12 03:23:47;;;;;;;12.55;7.60;;;;;;;;;;10026301;28;20061;-70
2023/11/12 03:28:39;;;;;;;10.50;7.35;;;;;;;;;;10024927;28;20042;-70
2023/11/12 03:33:31;;;;;;;11.15;6.80;;;;;;;;;;10024739;28;20033;-69
2023/11/12 03:38:24;;;;;;;6.55;5.75;;;;;;;;;;10007902;28;20093;-70
2023/11/12 03:43:15;;;;;;;9.45;6.45;;;;;;;;;;10027277;28;20042;-70
2023/11/12 03:48:10;;;;;;;11.93;9.45;;;;;;;;;;10023882;28;20113;-70
2023/11/12 03:53:02;;;;;;;9.18;5.95;;;;;;;;;;10028256;28;20068;-70
2023/11/12 03:57:54;;;;;;;7.45;5.60;;;;;;;;;;10023129;28;20501;-70
2023/11/12 04:02:46;;;;;;;7.07;5.68;;;;;;;;;;10022886;28;20052;-70
2023/11/12 04:07:38;;;;;;;6.45;5.18;;;;;;;;;;10015318;28;20124;-70
2023/11/12 04:12:29;;;;;;;6.93;5.20;;;;;;;;;;10024041;28;20535;-70
2023/11/12 04:17:21;;;;;;;12.77;4.80;;;;;;;;;;10024488;28;20153;-70
2023/11/12 04:22:13;;;;;;;15.38;6.32;;;;;;;;;;10026315;28;20072;-70
2023/11/12 04:27:06;;;;;;;13.25;6.75;;;;;;;;;;10022314;28;20030;-70
2023/11/12 04:31:58;;;;;;;8.15;5.85;;;;;;;;;;10029668;28;20103;-70
2023/11/12 04:36:50;;;;;;;9.90;6.50;;;;;;;;;;10031206;28;20432;-70
2023/11/12 04:41:42;;;;;;;8.43;7.57;;;;;;;;;;10030612;28;20065;-70
2023/11/12 04:46:34;;;;;;;6.93;6.22;;;;;;;;;;10029695;28;20064;-70
2023/11/12 04:51:26;;;;;;;8.15;7.45;;;;;;;;;;10032148;28;20065;-71
2023/11/12 04:56:20;;;;;;;7.28;4.78;;;;;;;;;;10031345;28;20060;-71
2023/11/12 05:01:11;;;;;;;17.15;6.63;;;;;;;;;;10030984;28;20037;-70
2023/11/12 05:06:04;;;;;;;11.23;5.13;;;;;;;;;;10030964;28;20046;-70
2023/11/12 05:10:56;;;;;;;8.90;4.93;;;;;;;;;;10029183;28;20042;-70
2023/11/12 05:15:47;;;;;;;11.50;8.65;;;;;;;;;;10026254;28;20115;-70
2023/11/12 05:20:39;;;;;;;11.38;8.50;;;;;;;;;;10030432;28;20424;-70
2023/11/12 05:25:31;;;;;;;16.23;11.35;;;;;;;;;;10028996;28;20168;-70
2023/11/12 05:30:23;;;;;;;9.50;6.75;;;;;;;;;;10028439;28;20057;-70
2023/11/12 05:35:15;;;;;;;11.30;6.93;;;;;;;;;;10030220;28;20108;-70
2023/11/12 05:40:08;;;;;;;6.43;5.07;;;;;;;;;;10020619;28;20499;-70
2023/11/12 05:45:00;;;;;;;10.02;5.93;;;;;;;;;;10029047;28;20436;-70
2023/11/12 05:49:51;;;;;;;6.88;4.80;;;;;;;;;;10027550;28;21767;-70
2023/11/12 05:54:43;;;;;;;5.47;4.30;;;;;;;;;;10028914;28;20076;-70
2023/11/12 05:59:35;;;;;;;5.28;4.63;;;;;;;;;;10029159;28;20042;-70
2023/11/12 06:04:27;;;;;;;5.88;4.63;;;;;;;;;;10026909;28;20042;-70
2023/11/12 06:09:19;;;;;;;6.15;4.97;;;;;;;;;;10021182;28;20468;-70
2023/11/12 06:14:11;;;;;;;6.25;5.25;;;;;;;;;;10049480;28;20045;-70
2023/11/12 06:19:03;;;;;;;6.63;5.45;;;;;;;;;;10067113;28;20052;-70
2023/11/12 06:23:55;;;;;;;6.03;4.82;;;;;;;;;;10030572;28;20479;-69
2023/11/12 06:28:50;;;;;;;9.85;6.00;;;;;;;;;;10026434;28;20043;-70
2023/11/12 06:33:45;;;;;;;11.25;5.35;;;;;;;;;;10024879;28;20430;-70
2023/11/12 06:38:37;;;;;;;8.63;4.95;;;;;;;;;;10026522;28;20066;-70
2023/11/12 06:43:29;;;;;;;11.70;7.43;;;;;;;;;;10026169;28;20052;-70
2023/11/12 06:48:21;;;;;;;11.18;6.35;;;;;;;;;;10024143;28;20389;-71
2023/11/12 06:53:13;;;;;;;9.73;5.60;;;;;;;;;;10031229;28;20049;-70
2023/11/12 06:58:04;;;;;;;7.43;6.55;;;;;;;;;;10066467;28;20125;-70
2023/11/12 07:02:57;;;;;;;9.63;6.18;;;;;;;;;;10051247;28;20155;-70
2023/11/12 07:07:49;;;;;;;7.43;6.30;;;;;;;;;;10066747;28;20132;-70
2023/11/12 07:12:42;;;;;;;10.85;7.05;;;;;;;;;;10062470;28;20464;-70
2023/11/12 07:17:34;;;;;;;7.97;6.80;;;;;;;;;;10054004;28;20126;-70
2023/11/12 07:22:28;;;;;;;9.88;7.22;;;;;;;;;;10065480;28;20094;-70
2023/11/12 07:27:20;;;;;;;8.57;7.10;;;;;;;;;;10064593;28;20049;-71
2023/11/12 07:32:11;;;;;;;12.40;7.57;;;;;;;;;;10064885;28;20127;-70
2023/11/12 07:37:04;;;;;;;10.18;8.52;;;;;;;;;;10065224;28;20073;-70
2023/11/12 07:41:55;;;;;;;13.95;8.35;;;;;;;;;;10064188;28;20119;-70
2023/11/12 07:46:47;;;;;;;10.45;7.60;;;;;;;;;;10063577;28;20050;-70
2023/11/12 07:51:39;;;;;;;9.85;7.55;;;;;;;;;;10064551;28;20069;-70
2023/11/12 07:56:31;;;;;;;9.15;8.15;;;;;;;;;;10066726;28;20053;-69
2023/11/12 08:01:32;;;;;;;10.57;8.05;;;;;;;;;;10071421;28;20129;-72
2023/11/12 08:06:26;;;;;;;13.45;10.43;;;;;;;;;;10065959;28;20057;-70
2023/11/12 08:11:18;;;;;;;15.70;11.40;;;;;;;;;;10068959;28;20052;-71
2023/11/12 08:16:10;;;;;;;13.35;10.45;;;;;;;;;;10064052;28;20076;-71
2023/11/12 08:21:02;;;;;;;13.95;11.48;;;;;;;;;;10059194;28;20042;-70
2023/11/12 08:25:54;;;;;;;12.07;10.88;;;;;;;;;;10071431;28;20415;-70
2023/11/12 08:30:48;;;;;;;16.55;11.02;;;;;;;;;;10070525;28;20045;-70
2023/11/12 08:35:40;;;;;;;21.45;13.77;;;;;;;;;;10058555;28;20049;-70
2023/11/12 08:40:31;;;;;;;16.38;11.07;;;;;;;;;;10070651;28;20048;-70
2023/11/12 08:45:24;;;;;;;16.48;11.73;;;;;;;;;;10056915;28;20139;-70
2023/11/12 08:50:16;;;;;;;16.50;14.45;;;;;;;;;;10070182;28;20172;-70
2023/11/12 08:55:08;;;;;;;15.68;12.27;;;;;;;;;;10056702;28;20403;-70
2023/11/12 09:00:00;;;;;;;17.52;14.38;;;;;;;;;;10031887;28;20096;-70
2023/11/12 09:04:51;;;;;;;15.63;12.25;;;;;;;;;;10034329;28;20080;-71
2023/11/12 09:09:43;;;;;;;18.13;13.90;;;;;;;;;;10035127;28;20101;-69
2023/11/12 09:14:35;;;;;;;20.38;13.38;;;;;;;;;;10040231;28;20042;-69
2023/11/12 09:19:27;;;;;;;17.35;13.73;;;;;;;;;;10027265;28;20124;-69
2023/11/12 09:24:19;;;;;;;17.38;14.10;;;;;;;;;;10027710;28;20054;-69
2023/11/12 09:29:11;;;;;;;19.63;15.68;;;;;;;;;;10031510;28;20042;-69
2023/11/12 09:34:03;;;;;;;25.02;18.98;;;;;;;;;;10031887;28;20499;-69
2023/11/12 09:38:55;;;;;;;25.50;18.02;;;;;;;;;;10033340;28;20069;-69
2023/11/12 09:43:47;;;;;;;28.75;20.80;;;;;;;;;;10022051;28;20552;-69
2023/11/12 09:48:40;;;;;;;30.40;22.10;;;;;;;;;;10035048;28;20085;-69
2023/11/12 09:53:33;;;;;;;28.02;19.67;;;;;;;;;;10032927;28;20050;-69
2023/11/12 09:58:26;;;;;;;31.52;21.95;;;;;;;;;;10050728;28;20495;-69
2023/11/12 10:03:18;;;;;;;28.75;21.83;;;;;;;;;;10035523;28;20058;-69
2023/11/12 10:08:11;;;;;;;32.35;24.98;;;;;;;;;;10047938;28;20058;-69
2023/11/12 10:13:04;;;;;;;43.13;29.38;;;;;;;;;;10037604;28;20049;-69
2023/11/12 10:17:56;;;;;;;31.00;24.20;;;;;;;;;;10039581;28;20057;-69
2023/11/12 10:22:53;;;;;;;36.55;29.35;;;;;;;;;;10035407;28;20104;-70
2023/11/12 10:27:52;;;;;;;34.22;26.80;;;;;;;;;;10026014;28;20045;-69
2023/11/12 10:32:44;;;;;;;35.35;26.35;;;;;;;;;;10027176;28;20133;-69
2023/11/12 10:38:01;;;;;;;34.78;27.55;;;;;;;;;;10049057;28;20080;-69
2023/11/12 10:42:58;;;;;;;38.15;29.27;;;;;;;;;;10046343;28;20614;-69
2023/11/12 10:47:56;;;;;;;40.35;29.48;;;;;;;;;;10051456;28;20053;-69
2023/11/12 10:52:48;;;;;;;40.22;29.33;;;;;;;;;;10033460;28;20120;-70
2023/11/12 10:57:43;;;;;;;39.47;28.35;;;;;;;;;;10048017;28;20057;-70
2023/11/12 11:02:37;;;;;;;37.40;29.20;;;;;;;;;;10035837;28;20121;-69
2023/11/12 11:07:29;;;;;;;48.53;29.48;;;;;;;;;;10038464;28;20365;-70
2023/11/12 11:12:22;;;;;;;53.47;36.58;;;;;;;;;;10033993;28;20050;-70
2023/11/12 11:17:39;;;;;;;61.50;43.30;;;;;;;;;;10024243;28;20184;-69
2023/11/12 11:22:34;;;;;;;56.90;41.50;;;;;;;;;;10027367;28;20136;-69
2023/11/12 11:27:26;;;;;;;58.80;43.05;;;;;;;;;;10026521;28;20046;-69
2023/11/12 11:32:18;;;;;;;56.30;41.80;;;;;;;;;;10052707;28;20052;-68
2023/11/12 11:37:11;;;;;;;59.60;42.90;;;;;;;;;;10055491;28;20457;-70
2023/11/12 11:42:08;;;;;;;60.70;42.97;;;;;;;;;;10040518;28;20045;-71
2023/11/12 11:47:05;;;;;;;53.55;40.75;;;;;;;;;;10033205;28;20473;-70
2023/11/12 11:52:00;;;;;;;57.53;43.88;;;;;;;;;;10034740;28;20470;-71
2023/11/12 11:56:52;;;;;;;55.70;40.35;;;;;;;;;;10051969;28;20034;-70
2023/11/12 12:01:48;;;;;;;58.88;42.00;;;;;;;;;;10037051;28;20140;-70
2023/11/12 12:06:42;;;;;;;57.33;42.35;;;;;;;;;;10040109;28;20053;-71
2023/11/12 12:11:36;;;;;;;59.75;43.05;;;;;;;;;;10033707;28;20053;-71
2023/11/12 12:16:34;;;;;;;64.63;47.92;;;;;;;;;;10023604;28;20373;-71
2023/11/12 12:21:26;;;;;;;54.05;41.60;;;;;;;;;;10063296;28;20053;-71
2023/11/12 12:26:24;;;;;;;66.57;47.00;;;;;;;;;;10049097;28;20069;-71
2023/11/12 12:31:17;;;;;;;61.40;43.38;;;;;;;;;;10045826;28;20046;-72
2023/11/12 12:36:14;;;;;;;50.13;40.05;;;;;;;;;;10050374;28;20046;-72
2023/11/12 12:41:08;;;;;;;61.17;45.63;;;;;;;;;;10058952;28;20477;-69
2023/11/12 12:45:59;;;;;;;59.92;43.63;;;;;;;;;;10019707;28;20061;-70
2023/11/12 12:50:58;;;;;;;54.47;41.28;;;;;;;;;;10059764;28;20093;-72
2023/11/12 12:55:52;;;;;;;53.97;41.72;;;;;;;;;;10031132;28;20128;-71
2023/11/12 13:00:44;;;;;;;63.15;46.90;;;;;;;;;;10019578;28;20054;-73
2023/11/12 13:05:36;;;;;;;52.40;39.92;;;;;;;;;;10025797;28;20046;-71
2023/11/12 13:10:28;;;;;;;56.92;42.28;;;;;;;;;;10023680;28;20046;-71
2023/11/12 13:15:24;;;;;;;56.30;41.55;;;;;;;;;;10009696;28;20045;-71
2023/11/12 13:20:17;;;;;;;50.80;40.13;;;;;;;;;;10021238;28;20465;-72
2023/11/12 13:25:14;;;;;;;56.40;41.85;;;;;;;;;;10021701;28;20046;-71
2023/11/12 13:30:09;;;;;;;50.55;39.17;;;;;;;;;;10022260;28;20053;-72
2023/11/12 13:35:01;;;;;;;48.55;40.15;;;;;;;;;;10006921;28;20054;-71
2023/11/12 13:39:53;;;;;;;51.53;37.00;;;;;;;;;;10024774;28;20045;-71
2023/11/12 13:44:47;;;;;;;46.90;35.95;;;;;;;;;;10023658;28;20089;-73
2023/11/12 13:49:43;;;;;;;49.20;37.38;;;;;;;;;;10022210;28;20560;-71
2023/11/12 13:54:35;;;;;;;48.38;38.28;;;;;;;;;;10022751;28;20087;-70
2023/11/12 13:59:27;;;;;;;48.70;39.72;;;;;;;;;;10022227;28;20042;-74
2023/11/12 14:04:19;;;;;;;46.10;38.58;;;;;;;;;;10023120;28;20054;-75
2023/11/12 14:09:12;;;;;;;48.03;36.10;;;;;;;;;;10023145;28;20042;-71
2023/11/12 14:14:04;;;;;;;50.03;41.97;;;;;;;;;;10022788;28;20038;-72
2023/11/12 14:18:57;;;;;;;52.05;37.83;;;;;;;;;;10021782;28;20041;-72
2023/11/12 14:23:49;;;;;;;46.80;37.78;;;;;;;;;;10023105;28;20046;-72
2023/11/12 14:28:41;;;;;;;44.55;37.50;;;;;;;;;;10022018;28;20046;-72
2023/11/12 14:33:33;;;;;;;47.67;38.22;;;;;;;;;;10021149;28;20141;-73
2023/11/12 14:38:26;;;;;;;49.67;38.55;;;;;;;;;;10020676;28;20499;-72
2023/11/12 14:43:19;;;;;;;45.03;37.30;;;;;;;;;;10027257;28;20061;-72
2023/11/12 14:48:12;;;;;;;57.75;45.13;;;;;;;;;;10053835;28;20428;-72
2023/11/12 14:53:05;;;;;;;77.13;56.55;;;;;;;;;;10060643;28;20403;-71
2023/11/12 14:57:57;;;;;;;56.90;46.78;;;;;;;;;;10054931;28;20041;-71
2023/11/12 15:02:50;;;;;;;56.53;44.95;;;;;;;;;;10053470;28;20116;-71
2023/11/12 15:07:43;;;;;;;48.15;39.35;;;;;;;;;;10035698;28;20052;-71
2023/11/12 15:12:35;;;;;;;47.17;38.25;;;;;;;;;;10046983;28;20045;-69
2023/11/12 15:17:28;;;;;;;49.03;39.95;;;;;;;;;;10052235;28;20046;-69
2023/11/12 15:22:24;;;;;;;53.97;40.25;;;;;;;;;;10058572;28;20290;-70
2023/11/12 15:27:16;;;;;;;63.85;51.83;;;;;;;;;;10056150;28;20049;-70
2023/11/12 15:32:08;;;;;;;64.97;50.42;;;;;;;;;;10056475;28;20091;-70
2023/11/12 15:37:00;;;;;;;63.30;51.33;;;;;;;;;;10028222;28;20096;-70
2023/11/12 15:41:55;;;;;;;50.13;39.50;;;;;;;;;;10020422;28;20042;-69
2023/11/12 15:46:50;;;;;;;57.45;41.67;;;;;;;;;;10021711;28;20080;-70
2023/11/12 15:51:42;;;;;;;56.28;44.85;;;;;;;;;;10020511;28;20058;-69
2023/11/12 15:56:35;;;;;;;67.68;51.05;;;;;;;;;;10027293;28;20054;-70
2023/11/12 16:01:28;;;;;;;74.88;63.70;;;;;;;;;;10022621;28;20342;-70
2023/11/12 16:06:20;;;;;;;53.88;40.55;;;;;;;;;;10022808;28;20096;-70
2023/11/12 16:11:12;;;;;;;50.95;40.28;;;;;;;;;;10025209;28;20073;-69
2023/11/12 16:16:05;;;;;;;50.97;42.15;;;;;;;;;;10024908;28;20069;-69
2023/11/12 16:20:57;;;;;;;47.88;39.30;;;;;;;;;;10031548;28;20411;-69
2023/11/12 16:25:49;;;;;;;54.90;42.08;;;;;;;;;;10037168;28;20049;-70
2023/11/12 16:30:42;;;;;;;57.05;47.72;;;;;;;;;;10027093;28;20686;-69
2023/11/12 16:35:34;;;;;;;61.90;47.97;;;;;;;;;;10031068;28;20046;-69
2023/11/12 16:40:26;;;;;;;72.07;55.15;;;;;;;;;;10028794;28;20087;-69
2023/11/12 16:45:18;;;;;;;72.35;56.85;;;;;;;;;;10028877;28;20049;-69
2023/11/12 16:50:14;;;;;;;92.72;69.82;;;;;;;;;;10026760;28;20489;-69
2023/11/12 16:55:06;;;;;;;71.85;59.42;;;;;;;;;;10022538;28;20096;-69
2023/11/12 16:59:58;;;;;;;82.75;63.95;;;;;;;;;;10011335;28;20105;-69
2023/11/12 17:04:51;;;;;;;76.85;62.83;;;;;;;;;;10015998;28;20046;-69
2023/11/12 17:09:45;;;;;;;94.03;69.45;;;;;;;;;;10026977;28;20053;-69
2023/11/12 17:14:37;;;;;;;151.70;120.40;;;;;;;;;;10009561;28;20050;-69
2023/11/12 17:19:30;;;;;;;65.47;53.00;;;;;;;;;;10026347;28;20034;-70
2023/11/12 17:24:24;;;;;;;59.30;50.15;;;;;;;;;;10019969;28;20057;-69
2023/11/12 17:29:17;;;;;;;54.70;44.75;;;;;;;;;;10037785;28;20034;-70
2023/11/12 17:34:08;;;;;;;48.47;38.47;;;;;;;;;;10048228;28;20460;-70
2023/11/12 17:39:00;;;;;;;53.17;41.55;;;;;;;;;;10060643;28;20464;-69
2023/11/12 17:43:53;;;;;;;47.35;37.88;;;;;;;;;;10066288;28;20053;-70
2023/11/12 17:48:47;;;;;;;47.13;38.35;;;;;;;;;;10066077;28;20187;-69
2023/11/12 17:53:39;;;;;;;49.03;38.25;;;;;;;;;;10050012;28;20125;-69
2023/11/12 17:58:32;;;;;;;50.40;39.95;;;;;;;;;;10054981;28;20099;-70
2023/11/12 18:03:30;;;;;;;50.78;35.67;;;;;;;;;;10044660;28;20087;-70
2023/11/12 18:08:23;;;;;;;46.47;36.63;;;;;;;;;;10042262;28;20045;-70
2023/11/12 18:13:15;;;;;;;49.95;35.47;;;;;;;;;;10045875;28;20045;-70
2023/11/12 18:18:07;;;;;;;40.78;33.97;;;;;;;;;;10057111;28;20145;-71
2023/11/12 18:22:59;;;;;;;50.08;39.08;;;;;;;;;;10062208;28;20046;-69
2023/11/12 18:27:51;;;;;;;51.78;40.95;;;;;;;;;;10047373;28;20388;-70
2023/11/12 18:32:43;;;;;;;48.88;37.20;;;;;;;;;;10038364;28;20571;-70
2023/11/12 18:37:35;;;;;;;45.33;36.65;;;;;;;;;;10044783;28;20108;-72
2023/11/12 18:42:29;;;;;;;46.75;35.78;;;;;;;;;;10044203;28;20115;-70
2023/11/12 18:47:21;;;;;;;48.83;38.40;;;;;;;;;;10038194;28;20099;-70
2023/11/12 18:52:13;;;;;;;41.75;33.30;;;;;;;;;;10059449;28;20053;-70
2023/11/12 18:57:06;;;;;;;49.60;38.55;;;;;;;;;;10060036;28;20041;-70
2023/11/12 19:01:58;;;;;;;48.05;37.50;;;;;;;;;;10058293;28;20053;-69
2023/11/12 19:06:50;;;;;;;52.80;39.58;;;;;;;;;;10051200;28;20088;-70
2023/11/12 19:11:42;;;;;;;53.45;41.28;;;;;;;;;;10020530;28;20046;-70
2023/11/12 19:16:34;;;;;;;54.30;42.78;;;;;;;;;;10022504;28;20069;-71
2023/11/12 19:21:26;;;;;;;53.92;43.35;;;;;;;;;;10020613;28;20092;-69
2023/11/12 19:26:22;;;;;;;62.05;43.70;;;;;;;;;;10020803;28;20103;-69
2023/11/12 19:31:17;;;;;;;60.97;43.60;;;;;;;;;;10018627;28;20092;-70
2023/11/12 19:36:23;;;;;;;64.15;44.65;;;;;;;;;;10002459;28;20069;-70
2023/11/12 19:41:15;;;;;;;61.78;45.88;;;;;;;;;;10008878;28;20049;-68
2023/11/12 19:46:08;;;;;;;57.60;43.33;;;;;;;;;;10012876;28;20538;-68
2023/11/12 19:51:00;;;;;;;80.55;45.70;;;;;;;;;;10009651;28;20046;-69
2023/11/12 19:55:56;;;;;;;53.33;39.10;;;;;;;;;;10010918;28;20053;-71
2023/11/12 20:00:49;;;;;;;57.53;39.97;;;;;;;;;;10017950;28;20054;-69
2023/11/12 20:05:42;;;;;;;46.75;34.60;;;;;;;;;;10018421;28;20056;-70
2023/11/12 20:10:35;;;;;;;47.58;36.03;;;;;;;;;;10034081;28;20375;-69
2023/11/12 20:15:27;;;;;;;49.65;37.78;;;;;;;;;;10022551;28;20041;-71
2023/11/12 20:20:19;;;;;;;46.85;34.55;;;;;;;;;;10036286;28;20285;-70
2023/11/12 20:25:12;;;;;;;67.32;45.40;;;;;;;;;;10025287;28;20042;-69
2023/11/12 20:30:04;;;;;;;62.70;44.30;;;;;;;;;;10049884;28;20050;-69
2023/11/12 20:34:56;;;;;;;55.97;40.08;;;;;;;;;;10024176;28;20093;-71
2023/11/12 20:39:49;;;;;;;44.03;32.75;;;;;;;;;;10017643;28;20053;-71
2023/11/12 20:44:42;;;;;;;51.00;36.22;;;;;;;;;;10012864;28;20504;-71
2023/11/12 20:49:34;;;;;;;45.90;33.47;;;;;;;;;;10028409;28;20492;-71
2023/11/12 20:54:26;;;;;;;47.63;33.10;;;;;;;;;;10027353;28;20038;-71
2023/11/12 20:59:24;;;;;;;56.33;42.28;;;;;;;;;;10028188;28;20052;-71
2023/11/12 21:04:16;;;;;;;49.05;35.42;;;;;;;;;;10017497;28;20042;-71
2023/11/12 21:09:08;;;;;;;92.72;55.08;;;;;;;;;;10016172;28;20054;-71
2023/11/12 21:14:00;;;;;;;46.72;35.03;;;;;;;;;;10019825;28;20054;-71
2023/11/12 21:18:54;;;;;;;40.97;29.00;;;;;;;;;;10027538;28;20080;-71
2023/11/12 21:23:46;;;;;;;42.42;30.65;;;;;;;;;;10027313;28;20511;-70
2023/11/12 21:28:38;;;;;;;122.13;65.55;;;;;;;;;;10024068;28;20054;-71
2023/11/12 21:33:31;;;;;;;121.00;61.67;;;;;;;;;;10016267;28;20097;-72
2023/11/12 21:38:24;;;;;;;44.72;30.27;;;;;;;;;;10024423;28;20041;-71
2023/11/12 21:43:16;;;;;;;35.42;26.38;;;;;;;;;;10027949;28;20034;-71
2023/11/12 21:48:08;;;;;;;32.53;25.35;;;;;;;;;;10028634;28;20461;-71
2023/11/12 21:53:00;;;;;;;40.90;30.13;;;;;;;;;;10025932;28;20038;-71
2023/11/12 21:57:54;;;;;;;40.47;30.20;;;;;;;;;;10027311;28;20042;-71
2023/11/12 22:02:46;;;;;;;37.00;30.45;;;;;;;;;;10024046;28;20476;-72
2023/11/12 22:07:38;;;;;;;40.13;29.50;;;;;;;;;;10022554;28;20077;-71
2023/11/12 22:12:30;;;;;;;37.53;27.70;;;;;;;;;;10023897;28;20038;-72
2023/11/12 22:17:22;;;;;;;33.42;26.15;;;;;;;;;;10016534;28;20092;-71
2023/11/12 22:22:14;;;;;;;26.67;22.35;;;;;;;;;;10022430;28;20073;-71
2023/11/12 22:27:06;;;;;;;32.40;25.92;;;;;;;;;;10022880;28;20053;-72
2023/11/12 22:31:58;;;;;;;32.85;23.10;;;;;;;;;;10027197;28;20041;-71
2023/11/12 22:36:50;;;;;;;27.48;23.30;;;;;;;;;;10025141;28;20061;-72
2023/11/12 22:41:42;;;;;;;36.83;24.80;;;;;;;;;;10021684;28;20085;-71
2023/11/12 22:46:33;;;;;;;27.63;22.13;;;;;;;;;;10020247;28;20049;-71
2023/11/12 22:51:25;;;;;;;30.58;23.92;;;;;;;;;;10026973;28;20144;-71
2023/11/12 22:56:18;;;;;;;30.13;22.83;;;;;;;;;;10026496;28;20038;-72
2023/11/12 23:01:13;;;;;;;41.47;26.40;;;;;;;;;;10020821;28;20057;-72
2023/11/12 23:06:05;;;;;;;30.20;23.95;;;;;;;;;;10055342;28;20108;-72
2023/11/12 23:10:57;;;;;;;36.92;23.40;;;;;;;;;;10060514;28;20116;-71
2023/11/12 23:15:50;;;;;;;33.55;24.55;;;;;;;;;;10062661;28;20463;-71
2023/11/12 23:20:42;;;;;;;33.58;27.42;;;;;;;;;;10062895;28;20073;-71
2023/11/12 23:25:43;;;;;;;27.10;21.13;;;;;;;;;;10065989;28;20426;-72
2023/11/12 23:30:35;;;;;;;37.60;26.88;;;;;;;;;;10031239;28;20132;-72
2023/11/12 23:35:29;;;;;;;29.15;21.40;;;;;;;;;;10024952;28;20041;-72
2023/11/12 23:40:22;;;;;;;29.55;21.75;;;;;;;;;;10022481;28;20057;-72
2023/11/12 23:45:14;;;;;;;28.10;20.48;;;;;;;;;;10025858;28;20046;-72
2023/11/12 23:50:07;;;;;;;23.60;19.83;;;;;;;;;;10024463;28;20136;-72
2023/11/12 23:54:59;;;;;;;26.55;21.30;;;;;;;;;;10025685;28;20042;-72
2023/11/12 23:59:51;;;;;;;27.10;19.77;;;;;;;;;;10026229;28;20418;-72
